<?xml version="1.0" encoding="utf-8"?>
<gpx xmlns:xsi="http://www.w3.org/2001/XMLSchema-instance" xmlns:xsd="http://www.w3.org/2001/XMLSchema" version="1.1" creator="Shapelink.com" xmlns="http://www.topografix.com/GPX/1/1" xmlns:gpxtpx="http://www.garmin.com/xmlschemas/TrackPointExtension/v1">
  <metadata>
    <name>Övrigt 1.61 km, 2019-04-22</name>
    <desc></desc>
    <author><name>Marian Moron</name></author> 
    <time>2019-04-22T16:58:41Z</time>
  </metadata>
  <trk>
    <name>Övrigt 1.61 km, 2019-04-22</name>
    <trkseg>
      <trkpt lat="52.000698738784" lon="4.132527654086">
        <ele>0</ele>
        <time>2019-04-22T16:58:41Z</time>
      </trkpt>
      <trkpt lat="52.000923625161" lon="4.131885432908">
        <ele>0</ele>
        <time>2019-04-22T16:59:28Z</time>
      </trkpt>
      <trkpt lat="52.001176590903" lon="4.131268273611">
        <ele>0</ele>
        <time>2019-04-22T17:00:12Z</time>
      </trkpt>
      <trkpt lat="52.001411200284" lon="4.130645833717">
        <ele>0</ele>
        <time>2019-04-22T17:00:59Z</time>
      </trkpt>
      <trkpt lat="52.001457133096" lon="4.130533683895">
        <ele>0</ele>
        <time>2019-04-22T17:01:09Z</time>
      </trkpt>
      <trkpt lat="52.001677074152" lon="4.129958434098">
        <ele>0</ele>
        <time>2019-04-22T17:01:52Z</time>
      </trkpt>
      <trkpt lat="52.001708757734" lon="4.129828179372">
        <ele>0</ele>
        <time>2019-04-22T17:01:59Z</time>
      </trkpt>
      <trkpt lat="52.001950659368" lon="4.129187550755">
        <ele>0</ele>
        <time>2019-04-22T17:02:30Z</time>
      </trkpt>
      <trkpt lat="52.002009751763" lon="4.129016476176">
        <ele>0</ele>
        <time>2019-04-22T17:02:38Z</time>
      </trkpt>
      <trkpt lat="52.00206029462" lon="4.128891418228">
        <ele>0</ele>
        <time>2019-04-22T17:02:46Z</time>
      </trkpt>
      <trkpt lat="52.002146712009" lon="4.128652198802">
        <ele>0</ele>
        <time>2019-04-22T17:02:58Z</time>
      </trkpt>
      <trkpt lat="52.002225585688" lon="4.128537115315">
        <ele>0</ele>
        <time>2019-04-22T17:03:04Z</time>
      </trkpt>
      <trkpt lat="52.002342094098" lon="4.128363442347">
        <ele>0</ele>
        <time>2019-04-22T17:03:39Z</time>
      </trkpt>
      <trkpt lat="52.002330610895" lon="4.128271073809">
        <ele>0</ele>
        <time>2019-04-22T17:05:37Z</time>
      </trkpt>
      <trkpt lat="52.002171019519" lon="4.128622107781">
        <ele>0</ele>
        <time>2019-04-22T17:06:16Z</time>
      </trkpt>
      <trkpt lat="52.002125841078" lon="4.128736101621">
        <ele>0</ele>
        <time>2019-04-22T17:06:27Z</time>
      </trkpt>
      <trkpt lat="52.001962729304" lon="4.129117394252">
        <ele>0</ele>
        <time>2019-04-22T17:07:02Z</time>
      </trkpt>
      <trkpt lat="52.001904558918" lon="4.129216887405">
        <ele>0</ele>
        <time>2019-04-22T17:07:20Z</time>
      </trkpt>
      <trkpt lat="52.001834905329" lon="4.129432302235">
        <ele>0</ele>
        <time>2019-04-22T17:07:44Z</time>
      </trkpt>
      <trkpt lat="52.001616473015" lon="4.130078798182">
        <ele>0</ele>
        <time>2019-04-22T17:08:53Z</time>
      </trkpt>
      <trkpt lat="52.001376583037" lon="4.130696376574">
        <ele>0</ele>
        <time>2019-04-22T17:10:12Z</time>
      </trkpt>
      <trkpt lat="52.001151277565" lon="4.131329712938">
        <ele>0</ele>
        <time>2019-04-22T17:11:20Z</time>
      </trkpt>
      <trkpt lat="52.001138872353" lon="4.131359133407">
        <ele>0</ele>
        <time>2019-04-22T17:11:23Z</time>
      </trkpt>
      <trkpt lat="52.000882721489" lon="4.131943687113">
        <ele>0</ele>
        <time>2019-04-22T17:12:33Z</time>
      </trkpt>
      <trkpt lat="52.000855312676" lon="4.132045275741">
        <ele>0</ele>
        <time>2019-04-22T17:12:44Z</time>
      </trkpt>
      <trkpt lat="52.000748862546" lon="4.132432938616">
        <ele>0</ele>
        <time>2019-04-22T17:13:20Z</time>
      </trkpt>
      <trkpt lat="52.000660601139" lon="4.13263963627">
        <ele>0</ele>
        <time>2019-04-22T17:13:43Z</time>
      </trkpt>
      <trkpt lat="52.00052389235" lon="4.133089409024">
        <ele>0</ele>
        <time>2019-04-22T17:14:23Z</time>
      </trkpt>
      <trkpt lat="52.000450802182" lon="4.133293173013">
        <ele>0</ele>
        <time>2019-04-22T17:14:42Z</time>
      </trkpt>
      <trkpt lat="52.000423477188" lon="4.133363664792">
        <ele>0</ele>
        <time>2019-04-22T17:14:49Z</time>
      </trkpt>
      <trkpt lat="52.000301017629" lon="4.133657785663">
        <ele>0</ele>
        <time>2019-04-22T17:15:45Z</time>
      </trkpt>
      <trkpt lat="52.000330689555" lon="4.133695588032">
        <ele>0</ele>
        <time>2019-04-22T17:15:50Z</time>
      </trkpt>
      <trkpt lat="52.00035709254" lon="4.133767756191">
        <ele>0</ele>
        <time>2019-04-22T17:16:00Z</time>
      </trkpt>
      <trkpt lat="52.000381651507" lon="4.133786028733">
        <ele>0</ele>
        <time>2019-04-22T17:16:03Z</time>
      </trkpt>
      <trkpt lat="52.000417358401" lon="4.134056093551">
        <ele>0</ele>
        <time>2019-04-22T17:16:47Z</time>
      </trkpt>
      <trkpt lat="52.000392045063" lon="4.134115353584">
        <ele>0</ele>
        <time>2019-04-22T17:16:53Z</time>
      </trkpt>
      <trkpt lat="52.00043504421" lon="4.133865572964">
        <ele>0</ele>
        <time>2019-04-22T17:17:33Z</time>
      </trkpt>
      <trkpt lat="52.000461950109" lon="4.133862723118">
        <ele>0</ele>
        <time>2019-04-22T17:17:37Z</time>
      </trkpt>
      <trkpt lat="52.000460860462" lon="4.134198837308">
        <ele>0</ele>
        <time>2019-04-22T17:18:51Z</time>
      </trkpt>
      <trkpt lat="52.000651129592" lon="4.134383406746">
        <ele>0</ele>
        <time>2019-04-22T17:19:21Z</time>
      </trkpt>
      <trkpt lat="52.000816253022" lon="4.134521959553">
        <ele>0</ele>
        <time>2019-04-22T17:19:47Z</time>
      </trkpt>
      <trkpt lat="52.001005767781" lon="4.134678030531">
        <ele>0</ele>
        <time>2019-04-22T17:20:31Z</time>
      </trkpt>
      <trkpt lat="52.001210872874" lon="4.134886069289">
        <ele>0</ele>
        <time>2019-04-22T17:21:09Z</time>
      </trkpt>
      <trkpt lat="52.00144087221" lon="4.135158564858">
        <ele>0</ele>
        <time>2019-04-22T17:21:56Z</time>
      </trkpt>
      <trkpt lat="52.001488984316" lon="4.135199971444">
        <ele>0</ele>
        <time>2019-04-22T17:22:29Z</time>
      </trkpt>
      <trkpt lat="52.001672631745" lon="4.135462492552">
        <ele>0</ele>
        <time>2019-04-22T17:22:55Z</time>
      </trkpt>
      <trkpt lat="52.001808250887" lon="4.135633483312">
        <ele>0</ele>
        <time>2019-04-22T17:23:17Z</time>
      </trkpt>
      <trkpt lat="52.002149645674" lon="4.136113263268">
        <ele>0</ele>
        <time>2019-04-22T17:24:13Z</time>
      </trkpt>
      <trkpt lat="52.002244025868" lon="4.136268244599">
        <ele>0</ele>
        <time>2019-04-22T17:24:32Z</time>
      </trkpt>
      <trkpt lat="52.002420045768" lon="4.136463207593">
        <ele>0</ele>
        <time>2019-04-22T17:25:01Z</time>
      </trkpt>
      <trkpt lat="52.002665383981" lon="4.136779959594">
        <ele>0</ele>
        <time>2019-04-22T17:25:41Z</time>
      </trkpt>
      <trkpt lat="52.002719866331" lon="4.136847852984">
        <ele>0</ele>
        <time>2019-04-22T17:25:50Z</time>
      </trkpt>
      <trkpt lat="52.00306276986" lon="4.13731673647">
        <ele>0</ele>
        <time>2019-04-22T17:26:47Z</time>
      </trkpt>
      <trkpt lat="52.003086909732" lon="4.13734858769">
        <ele>0</ele>
        <time>2019-04-22T17:26:52Z</time>
      </trkpt>
      <trkpt lat="52.003185564695" lon="4.137475238199">
        <ele>0</ele>
        <time>2019-04-22T17:27:16Z</time>
      </trkpt>
      <trkpt lat="52.003347083908" lon="4.137678080179">
        <ele>0</ele>
        <time>2019-04-22T17:27:44Z</time>
      </trkpt>
      <trkpt lat="52.003495359719" lon="4.137843203609">
        <ele>0</ele>
        <time>2019-04-22T17:28:05Z</time>
      </trkpt>
      <trkpt lat="52.003669200325" lon="4.138079321732">
        <ele>0</ele>
        <time>2019-04-22T17:28:32Z</time>
      </trkpt>
      <trkpt lat="52.003700716269" lon="4.138177809057">
        <ele>0</ele>
        <time>2019-04-22T17:28:40Z</time>
      </trkpt>
      <trkpt lat="52.00356316929" lon="4.138331197827">
        <ele>0</ele>
        <time>2019-04-22T17:29:03Z</time>
      </trkpt>
      <trkpt lat="52.003365021174" lon="4.138462039286">
        <ele>0</ele>
        <time>2019-04-22T17:29:31Z</time>
      </trkpt>
      <trkpt lat="52.003047766259" lon="4.138649207113">
        <ele>0</ele>
        <time>2019-04-22T17:30:08Z</time>
      </trkpt>
      <trkpt lat="52.003065535887" lon="4.138481233837">
        <ele>0</ele>
        <time>2019-04-22T17:30:27Z</time>
      </trkpt>
      <trkpt lat="52.003050783743" lon="4.138478132534">
        <ele>0</ele>
        <time>2019-04-22T17:32:59Z</time>
      </trkpt>
      <trkpt lat="52.002981633068" lon="4.138478132534">
        <ele>0</ele>
        <time>2019-04-22T17:33:26Z</time>
      </trkpt>
      <trkpt lat="52.002976603928" lon="4.138564214647">
        <ele>0</ele>
        <time>2019-04-22T17:34:07Z</time>
      </trkpt>
      <trkpt lat="52.002954894807" lon="4.138480060371">
        <ele>0</ele>
        <time>2019-04-22T17:34:14Z</time>
      </trkpt>
      <trkpt lat="52.002925139062" lon="4.138476623792">
        <ele>0</ele>
        <time>2019-04-22T17:34:17Z</time>
      </trkpt>
      <trkpt lat="52.002869064151" lon="4.138476204697">
        <ele>0</ele>
        <time>2019-04-22T17:34:24Z</time>
      </trkpt>
      <trkpt lat="52.002841739157" lon="4.138431612989">
        <ele>0</ele>
        <time>2019-04-22T17:34:28Z</time>
      </trkpt>
      <trkpt lat="52.00274509585" lon="4.138345698514">
        <ele>0</ele>
        <time>2019-04-22T17:35:01Z</time>
      </trkpt>
    </trkseg>
  </trk>
</gpx>